sensor_id;sensor_type;location;lat;lon;timestamp;P1;durP1;ratioP1;P2;durP2;ratioP2
64387;SDS011;50709;52.648;4.764;2023-03-14T00:00:30;14.15;;;3.92;;
64387;SDS011;50709;52.648;4.764;2023-03-14T00:02:55;10.80;;;3.83;;
64387;SDS011;50709;52.648;4.764;2023-03-14T00:05:21;17.50;;;4.03;;
64387;SDS011;50709;52.648;4.764;2023-03-14T00:07:46;16.50;;;3.45;;
64387;SDS011;50709;52.648;4.764;2023-03-14T00:10:12;9.95;;;3.00;;
64387;SDS011;50709;52.648;4.764;2023-03-14T00:12:39;14.82;;;3.10;;
64387;SDS011;50709;52.648;4.764;2023-03-14T00:15:05;20.88;;;4.10;;
64387;SDS011;50709;52.648;4.764;2023-03-14T00:17:33;14.60;;;2.95;;
64387;SDS011;50709;52.648;4.764;2023-03-14T00:19:59;15.77;;;3.42;;
64387;SDS011;50709;52.648;4.764;2023-03-14T00:22:35;10.05;;;2.80;;
64387;SDS011;50709;52.648;4.764;2023-03-14T00:25:02;16.80;;;3.75;;
64387;SDS011;50709;52.648;4.764;2023-03-14T00:27:28;16.60;;;3.13;;
64387;SDS011;50709;52.648;4.764;2023-03-14T00:29:54;14.63;;;3.85;;
64387;SDS011;50709;52.648;4.764;2023-03-14T00:32:19;14.23;;;3.38;;
64387;SDS011;50709;52.648;4.764;2023-03-14T00:34:44;21.60;;;5.05;;
64387;SDS011;50709;52.648;4.764;2023-03-14T00:37:10;17.67;;;3.47;;
64387;SDS011;50709;52.648;4.764;2023-03-14T00:39:35;11.48;;;2.83;;
64387;SDS011;50709;52.648;4.764;2023-03-14T00:42:00;15.50;;;3.80;;
64387;SDS011;50709;52.648;4.764;2023-03-14T00:44:26;11.02;;;2.35;;
64387;SDS011;50709;52.648;4.764;2023-03-14T00:46:51;13.52;;;2.45;;
64387;SDS011;50709;52.648;4.764;2023-03-14T00:49:17;10.32;;;2.92;;
64387;SDS011;50709;52.648;4.764;2023-03-14T00:51:42;12.90;;;2.70;;
64387;SDS011;50709;52.648;4.764;2023-03-14T00:54:08;9.70;;;2.97;;
64387;SDS011;50709;52.648;4.764;2023-03-14T00:56:33;13.95;;;3.60;;
64387;SDS011;50709;52.648;4.764;2023-03-14T00:58:59;12.75;;;3.08;;
64387;SDS011;50709;52.648;4.764;2023-03-14T01:01:24;12.85;;;3.00;;
64387;SDS011;50709;52.648;4.764;2023-03-14T01:03:53;18.95;;;3.60;;
64387;SDS011;50709;52.648;4.764;2023-03-14T01:06:21;12.93;;;2.60;;
64387;SDS011;50709;52.648;4.764;2023-03-14T01:08:48;20.77;;;4.03;;
64387;SDS011;50709;52.648;4.764;2023-03-14T01:11:15;13.20;;;3.25;;
64387;SDS011;50709;52.648;4.764;2023-03-14T01:13:43;18.90;;;3.00;;
64387;SDS011;50709;52.648;4.764;2023-03-14T01:16:09;13.02;;;3.13;;
64387;SDS011;50709;52.648;4.764;2023-03-14T01:18:36;13.52;;;3.80;;
64387;SDS011;50709;52.648;4.764;2023-03-14T01:21:03;19.92;;;3.55;;
64387;SDS011;50709;52.648;4.764;2023-03-14T01:23:34;9.50;;;2.22;;
64387;SDS011;50709;52.648;4.764;2023-03-14T01:25:59;16.08;;;3.10;;
64387;SDS011;50709;52.648;4.764;2023-03-14T01:28:24;16.83;;;3.47;;
64387;SDS011;50709;52.648;4.764;2023-03-14T01:30:50;14.98;;;3.08;;
64387;SDS011;50709;52.648;4.764;2023-03-14T01:33:15;16.77;;;3.35;;
64387;SDS011;50709;52.648;4.764;2023-03-14T01:35:40;14.82;;;2.97;;
64387;SDS011;50709;52.648;4.764;2023-03-14T01:38:06;18.08;;;3.20;;
64387;SDS011;50709;52.648;4.764;2023-03-14T01:40:31;14.25;;;2.88;;
64387;SDS011;50709;52.648;4.764;2023-03-14T01:42:57;16.80;;;3.72;;
64387;SDS011;50709;52.648;4.764;2023-03-14T01:48:31;19.13;;;3.88;;
64387;SDS011;50709;52.648;4.764;2023-03-14T01:51:00;19.05;;;3.50;;
64387;SDS011;50709;52.648;4.764;2023-03-14T01:53:27;21.13;;;3.75;;
64387;SDS011;50709;52.648;4.764;2023-03-14T01:55:54;26.00;;;3.90;;
64387;SDS011;50709;52.648;4.764;2023-03-14T01:58:24;13.32;;;3.33;;
64387;SDS011;50709;52.648;4.764;2023-03-14T02:00:52;24.08;;;3.70;;
64387;SDS011;50709;52.648;4.764;2023-03-14T02:03:18;25.77;;;5.20;;
64387;SDS011;50709;52.648;4.764;2023-03-14T02:05:47;12.18;;;3.10;;
64387;SDS011;50709;52.648;4.764;2023-03-14T02:08:15;13.68;;;3.80;;
64387;SDS011;50709;52.648;4.764;2023-03-14T02:10:45;15.57;;;3.17;;
64387;SDS011;50709;52.648;4.764;2023-03-14T02:13:13;13.00;;;3.22;;
64387;SDS011;50709;52.648;4.764;2023-03-14T02:15:41;21.63;;;4.03;;
64387;SDS011;50709;52.648;4.764;2023-03-14T02:18:07;20.65;;;3.30;;
64387;SDS011;50709;52.648;4.764;2023-03-14T02:23:07;12.93;;;3.35;;
64387;SDS011;50709;52.648;4.764;2023-03-14T02:25:40;17.75;;;4.50;;
64387;SDS011;50709;52.648;4.764;2023-03-14T02:28:06;19.10;;;4.78;;
64387;SDS011;50709;52.648;4.764;2023-03-14T02:30:32;16.88;;;3.17;;
64387;SDS011;50709;52.648;4.764;2023-03-14T02:32:59;18.60;;;3.90;;
64387;SDS011;50709;52.648;4.764;2023-03-14T02:35:29;21.10;;;3.90;;
64387;SDS011;50709;52.648;4.764;2023-03-14T02:40:29;16.30;;;3.40;;
64387;SDS011;50709;52.648;4.764;2023-03-14T02:42:54;12.63;;;2.92;;
64387;SDS011;50709;52.648;4.764;2023-03-14T02:47:47;17.35;;;3.50;;
64387;SDS011;50709;52.648;4.764;2023-03-14T02:50:19;13.38;;;4.07;;
64387;SDS011;50709;52.648;4.764;2023-03-14T02:52:47;15.40;;;3.50;;
64387;SDS011;50709;52.648;4.764;2023-03-14T02:55:13;18.88;;;3.42;;
64387;SDS011;50709;52.648;4.764;2023-03-14T02:57:39;10.68;;;2.63;;
64387;SDS011;50709;52.648;4.764;2023-03-14T03:00:04;17.65;;;3.38;;
64387;SDS011;50709;52.648;4.764;2023-03-14T03:02:31;18.98;;;3.53;;
64387;SDS011;50709;52.648;4.764;2023-03-14T03:04:57;11.63;;;2.78;;
64387;SDS011;50709;52.648;4.764;2023-03-14T03:07:23;12.75;;;2.85;;
64387;SDS011;50709;52.648;4.764;2023-03-14T03:09:49;13.63;;;3.63;;
64387;SDS011;50709;52.648;4.764;2023-03-14T03:12:14;10.68;;;3.33;;
64387;SDS011;50709;52.648;4.764;2023-03-14T03:14:39;10.55;;;2.78;;
64387;SDS011;50709;52.648;4.764;2023-03-14T03:17:05;11.52;;;2.90;;
64387;SDS011;50709;52.648;4.764;2023-03-14T03:19:31;17.48;;;2.90;;
64387;SDS011;50709;52.648;4.764;2023-03-14T03:21:57;17.95;;;3.60;;
64387;SDS011;50709;52.648;4.764;2023-03-14T03:24:23;13.75;;;3.13;;
64387;SDS011;50709;52.648;4.764;2023-03-14T03:26:49;11.25;;;3.17;;
64387;SDS011;50709;52.648;4.764;2023-03-14T03:29:14;11.70;;;3.33;;
64387;SDS011;50709;52.648;4.764;2023-03-14T03:31:39;13.73;;;2.97;;
64387;SDS011;50709;52.648;4.764;2023-03-14T03:34:05;12.85;;;3.65;;
64387;SDS011;50709;52.648;4.764;2023-03-14T03:36:30;12.75;;;2.75;;
64387;SDS011;50709;52.648;4.764;2023-03-14T03:38:55;11.65;;;3.00;;
64387;SDS011;50709;52.648;4.764;2023-03-14T03:41:21;18.23;;;3.83;;
64387;SDS011;50709;52.648;4.764;2023-03-14T03:43:46;15.27;;;3.05;;
64387;SDS011;50709;52.648;4.764;2023-03-14T03:46:11;15.85;;;3.80;;
64387;SDS011;50709;52.648;4.764;2023-03-14T03:48:37;12.07;;;2.95;;
64387;SDS011;50709;52.648;4.764;2023-03-14T03:51:02;15.68;;;3.13;;
64387;SDS011;50709;52.648;4.764;2023-03-14T03:53:28;14.48;;;3.08;;
64387;SDS011;50709;52.648;4.764;2023-03-14T03:55:54;11.75;;;2.83;;
64387;SDS011;50709;52.648;4.764;2023-03-14T03:58:19;11.15;;;2.78;;
64387;SDS011;50709;52.648;4.764;2023-03-14T04:00:45;10.73;;;2.67;;
64387;SDS011;50709;52.648;4.764;2023-03-14T04:03:10;9.40;;;2.80;;
64387;SDS011;50709;52.648;4.764;2023-03-14T04:05:35;7.20;;;2.22;;
64387;SDS011;50709;52.648;4.764;2023-03-14T04:08:01;12.27;;;3.20;;
64387;SDS011;50709;52.648;4.764;2023-03-14T04:10:28;9.90;;;2.70;;
64387;SDS011;50709;52.648;4.764;2023-03-14T04:12:53;14.70;;;3.90;;
64387;SDS011;50709;52.648;4.764;2023-03-14T04:15:19;11.05;;;3.78;;
64387;SDS011;50709;52.648;4.764;2023-03-14T04:17:44;11.93;;;3.35;;
64387;SDS011;50709;52.648;4.764;2023-03-14T04:20:10;13.40;;;3.30;;
64387;SDS011;50709;52.648;4.764;2023-03-14T04:22:36;16.58;;;4.63;;
64387;SDS011;50709;52.648;4.764;2023-03-14T04:25:02;11.48;;;3.05;;
64387;SDS011;50709;52.648;4.764;2023-03-14T04:27:28;13.23;;;2.80;;
64387;SDS011;50709;52.648;4.764;2023-03-14T04:29:54;14.30;;;3.67;;
64387;SDS011;50709;52.648;4.764;2023-03-14T04:32:19;8.82;;;2.97;;
64387;SDS011;50709;52.648;4.764;2023-03-14T04:34:45;11.45;;;3.00;;
64387;SDS011;50709;52.648;4.764;2023-03-14T04:37:10;5.65;;;3.15;;
64387;SDS011;50709;52.648;4.764;2023-03-14T04:39:36;7.90;;;2.92;;
64387;SDS011;50709;52.648;4.764;2023-03-14T04:42:01;11.70;;;2.90;;
64387;SDS011;50709;52.648;4.764;2023-03-14T04:44:26;9.88;;;2.50;;
64387;SDS011;50709;52.648;4.764;2023-03-14T04:46:52;8.95;;;2.65;;
64387;SDS011;50709;52.648;4.764;2023-03-14T04:49:17;12.70;;;4.00;;
64387;SDS011;50709;52.648;4.764;2023-03-14T04:51:42;7.05;;;2.33;;
64387;SDS011;50709;52.648;4.764;2023-03-14T04:54:08;8.30;;;2.72;;
64387;SDS011;50709;52.648;4.764;2023-03-14T04:56:34;12.38;;;3.50;;
64387;SDS011;50709;52.648;4.764;2023-03-14T04:58:59;11.50;;;3.17;;
64387;SDS011;50709;52.648;4.764;2023-03-14T05:01:25;10.55;;;2.95;;
64387;SDS011;50709;52.648;4.764;2023-03-14T05:03:50;10.75;;;3.03;;
64387;SDS011;50709;52.648;4.764;2023-03-14T05:06:15;10.05;;;2.20;;
64387;SDS011;50709;52.648;4.764;2023-03-14T05:08:41;7.25;;;2.78;;
64387;SDS011;50709;52.648;4.764;2023-03-14T05:11:09;11.93;;;2.47;;
64387;SDS011;50709;52.648;4.764;2023-03-14T05:13:35;7.20;;;2.25;;
64387;SDS011;50709;52.648;4.764;2023-03-14T05:16:04;7.45;;;2.40;;
64387;SDS011;50709;52.648;4.764;2023-03-14T05:20:59;9.90;;;2.80;;
64387;SDS011;50709;52.648;4.764;2023-03-14T05:23:24;6.45;;;2.08;;
64387;SDS011;50709;52.648;4.764;2023-03-14T05:25:50;2.58;;;1.30;;
64387;SDS011;50709;52.648;4.764;2023-03-14T05:28:15;8.50;;;2.20;;
64387;SDS011;50709;52.648;4.764;2023-03-14T05:30:40;6.55;;;1.90;;
64387;SDS011;50709;52.648;4.764;2023-03-14T05:33:06;5.45;;;1.80;;
64387;SDS011;50709;52.648;4.764;2023-03-14T05:35:31;5.75;;;2.58;;
64387;SDS011;50709;52.648;4.764;2023-03-14T05:37:57;5.57;;;1.88;;
64387;SDS011;50709;52.648;4.764;2023-03-14T05:40:22;5.00;;;1.80;;
64387;SDS011;50709;52.648;4.764;2023-03-14T05:42:47;7.07;;;2.22;;
64387;SDS011;50709;52.648;4.764;2023-03-14T05:45:13;3.60;;;1.15;;
64387;SDS011;50709;52.648;4.764;2023-03-14T05:47:38;5.30;;;1.67;;
64387;SDS011;50709;52.648;4.764;2023-03-14T05:50:04;7.68;;;2.13;;
64387;SDS011;50709;52.648;4.764;2023-03-14T05:52:29;6.60;;;2.17;;
64387;SDS011;50709;52.648;4.764;2023-03-14T05:54:55;3.40;;;1.38;;
64387;SDS011;50709;52.648;4.764;2023-03-14T05:57:20;6.90;;;1.55;;
64387;SDS011;50709;52.648;4.764;2023-03-14T05:59:45;4.40;;;1.73;;
64387;SDS011;50709;52.648;4.764;2023-03-14T06:02:11;5.82;;;1.77;;
64387;SDS011;50709;52.648;4.764;2023-03-14T06:04:36;4.82;;;1.15;;
64387;SDS011;50709;52.648;4.764;2023-03-14T06:07:01;5.38;;;1.70;;
64387;SDS011;50709;52.648;4.764;2023-03-14T06:09:27;4.50;;;1.30;;
64387;SDS011;50709;52.648;4.764;2023-03-14T06:11:52;5.30;;;1.52;;
64387;SDS011;50709;52.648;4.764;2023-03-14T06:14:17;5.60;;;1.83;;
64387;SDS011;50709;52.648;4.764;2023-03-14T06:16:43;4.93;;;1.60;;
64387;SDS011;50709;52.648;4.764;2023-03-14T06:19:08;8.70;;;2.45;;
64387;SDS011;50709;52.648;4.764;2023-03-14T06:21:33;5.90;;;1.65;;
64387;SDS011;50709;52.648;4.764;2023-03-14T06:24:00;4.22;;;1.60;;
64387;SDS011;50709;52.648;4.764;2023-03-14T06:26:25;5.50;;;1.63;;
64387;SDS011;50709;52.648;4.764;2023-03-14T06:28:51;6.25;;;1.40;;
64387;SDS011;50709;52.648;4.764;2023-03-14T06:31:16;4.55;;;1.48;;
64387;SDS011;50709;52.648;4.764;2023-03-14T06:33:42;4.10;;;1.60;;
64387;SDS011;50709;52.648;4.764;2023-03-14T06:36:07;2.97;;;1.27;;
64387;SDS011;50709;52.648;4.764;2023-03-14T06:38:33;6.75;;;1.45;;
64387;SDS011;50709;52.648;4.764;2023-03-14T06:41:05;5.68;;;2.08;;
64387;SDS011;50709;52.648;4.764;2023-03-14T06:43:31;3.78;;;1.25;;
64387;SDS011;50709;52.648;4.764;2023-03-14T06:45:56;7.53;;;2.05;;
64387;SDS011;50709;52.648;4.764;2023-03-14T06:48:22;7.65;;;1.52;;
64387;SDS011;50709;52.648;4.764;2023-03-14T06:50:48;7.25;;;3.90;;
64387;SDS011;50709;52.648;4.764;2023-03-14T06:53:14;5.68;;;1.45;;
64387;SDS011;50709;52.648;4.764;2023-03-14T06:55:39;7.97;;;3.35;;
64387;SDS011;50709;52.648;4.764;2023-03-14T06:58:04;4.43;;;1.50;;
64387;SDS011;50709;52.648;4.764;2023-03-14T07:00:32;3.40;;;1.48;;
64387;SDS011;50709;52.648;4.764;2023-03-14T07:02:58;6.47;;;1.60;;
64387;SDS011;50709;52.648;4.764;2023-03-14T07:05:23;10.65;;;6.57;;
64387;SDS011;50709;52.648;4.764;2023-03-14T07:07:49;2.33;;;1.17;;
64387;SDS011;50709;52.648;4.764;2023-03-14T07:10:14;5.55;;;3.85;;
64387;SDS011;50709;52.648;4.764;2023-03-14T07:12:39;4.07;;;1.70;;
64387;SDS011;50709;52.648;4.764;2023-03-14T07:15:05;6.30;;;1.48;;
64387;SDS011;50709;52.648;4.764;2023-03-14T07:17:31;3.13;;;1.80;;
64387;SDS011;50709;52.648;4.764;2023-03-14T07:19:56;9.18;;;2.88;;
64387;SDS011;50709;52.648;4.764;2023-03-14T07:22:21;4.78;;;3.17;;
64387;SDS011;50709;52.648;4.764;2023-03-14T07:24:47;5.47;;;3.13;;
64387;SDS011;50709;52.648;4.764;2023-03-14T07:27:12;3.88;;;1.45;;
64387;SDS011;50709;52.648;4.764;2023-03-14T07:29:37;6.75;;;3.45;;
64387;SDS011;50709;52.648;4.764;2023-03-14T07:32:03;18.17;;;7.20;;
64387;SDS011;50709;52.648;4.764;2023-03-14T07:34:28;11.23;;;3.90;;
64387;SDS011;50709;52.648;4.764;2023-03-14T07:36:54;8.88;;;2.85;;
64387;SDS011;50709;52.648;4.764;2023-03-14T07:39:19;5.65;;;2.15;;
64387;SDS011;50709;52.648;4.764;2023-03-14T07:41:44;7.05;;;2.38;;
64387;SDS011;50709;52.648;4.764;2023-03-14T07:44:10;7.13;;;2.58;;
64387;SDS011;50709;52.648;4.764;2023-03-14T07:46:35;8.68;;;3.05;;
64387;SDS011;50709;52.648;4.764;2023-03-14T07:49:01;5.85;;;2.15;;
64387;SDS011;50709;52.648;4.764;2023-03-14T07:51:26;8.70;;;2.38;;
64387;SDS011;50709;52.648;4.764;2023-03-14T07:53:54;8.68;;;2.50;;
64387;SDS011;50709;52.648;4.764;2023-03-14T07:56:19;8.55;;;2.03;;
64387;SDS011;50709;52.648;4.764;2023-03-14T07:58:45;7.78;;;2.60;;
64387;SDS011;50709;52.648;4.764;2023-03-14T08:01:10;13.45;;;3.65;;
64387;SDS011;50709;52.648;4.764;2023-03-14T08:03:35;10.27;;;2.72;;
64387;SDS011;50709;52.648;4.764;2023-03-14T08:06:01;12.05;;;3.85;;
64387;SDS011;50709;52.648;4.764;2023-03-14T08:08:26;10.27;;;3.38;;
64387;SDS011;50709;52.648;4.764;2023-03-14T08:10:51;11.07;;;3.50;;
64387;SDS011;50709;52.648;4.764;2023-03-14T08:13:17;11.25;;;3.83;;
64387;SDS011;50709;52.648;4.764;2023-03-14T08:15:42;16.02;;;4.40;;
64387;SDS011;50709;52.648;4.764;2023-03-14T08:18:07;10.73;;;3.45;;
64387;SDS011;50709;52.648;4.764;2023-03-14T08:20:33;6.03;;;2.30;;
64387;SDS011;50709;52.648;4.764;2023-03-14T08:22:59;12.18;;;3.80;;
64387;SDS011;50709;52.648;4.764;2023-03-14T08:25:26;11.75;;;3.67;;
64387;SDS011;50709;52.648;4.764;2023-03-14T08:27:53;12.32;;;2.97;;
64387;SDS011;50709;52.648;4.764;2023-03-14T08:30:19;10.80;;;3.28;;
64387;SDS011;50709;52.648;4.764;2023-03-14T08:32:45;9.90;;;3.72;;
64387;SDS011;50709;52.648;4.764;2023-03-14T08:35:11;11.68;;;3.58;;
64387;SDS011;50709;52.648;4.764;2023-03-14T08:37:37;10.02;;;3.47;;
64387;SDS011;50709;52.648;4.764;2023-03-14T08:40:03;13.57;;;3.33;;
64387;SDS011;50709;52.648;4.764;2023-03-14T08:42:33;16.15;;;3.75;;
64387;SDS011;50709;52.648;4.764;2023-03-14T08:44:59;7.53;;;3.20;;
64387;SDS011;50709;52.648;4.764;2023-03-14T08:47:25;13.30;;;3.45;;
64387;SDS011;50709;52.648;4.764;2023-03-14T08:49:50;12.32;;;3.35;;
64387;SDS011;50709;52.648;4.764;2023-03-14T08:52:15;11.02;;;3.42;;
64387;SDS011;50709;52.648;4.764;2023-03-14T08:54:41;11.02;;;3.03;;
64387;SDS011;50709;52.648;4.764;2023-03-14T08:57:10;12.35;;;3.08;;
64387;SDS011;50709;52.648;4.764;2023-03-14T08:59:35;8.63;;;3.05;;
64387;SDS011;50709;52.648;4.764;2023-03-14T09:02:01;11.00;;;2.83;;
64387;SDS011;50709;52.648;4.764;2023-03-14T09:04:28;12.45;;;2.88;;
64387;SDS011;50709;52.648;4.764;2023-03-14T09:06:54;5.15;;;1.45;;
64387;SDS011;50709;52.648;4.764;2023-03-14T09:09:20;8.05;;;2.72;;
64387;SDS011;50709;52.648;4.764;2023-03-14T09:11:45;10.95;;;2.55;;
64387;SDS011;50709;52.648;4.764;2023-03-14T09:14:11;9.88;;;2.95;;
64387;SDS011;50709;52.648;4.764;2023-03-14T09:16:36;13.02;;;3.42;;
64387;SDS011;50709;52.648;4.764;2023-03-14T09:19:02;10.30;;;2.72;;
64387;SDS011;50709;52.648;4.764;2023-03-14T09:21:28;9.27;;;2.60;;
64387;SDS011;50709;52.648;4.764;2023-03-14T09:23:53;13.25;;;3.28;;
64387;SDS011;50709;52.648;4.764;2023-03-14T09:26:19;13.93;;;2.55;;
64387;SDS011;50709;52.648;4.764;2023-03-14T09:28:45;6.57;;;1.92;;
64387;SDS011;50709;52.648;4.764;2023-03-14T09:31:11;7.70;;;1.60;;
64387;SDS011;50709;52.648;4.764;2023-03-14T09:33:37;9.93;;;4.07;;
64387;SDS011;50709;52.648;4.764;2023-03-14T09:36:03;14.63;;;3.40;;
64387;SDS011;50709;52.648;4.764;2023-03-14T09:38:29;7.95;;;2.53;;
64387;SDS011;50709;52.648;4.764;2023-03-14T09:40:55;1.33;;;1.10;;
64387;SDS011;50709;52.648;4.764;2023-03-14T09:43:24;14.07;;;3.17;;
64387;SDS011;50709;52.648;4.764;2023-03-14T09:45:51;10.20;;;2.47;;
64387;SDS011;50709;52.648;4.764;2023-03-14T09:48:19;10.35;;;2.88;;
64387;SDS011;50709;52.648;4.764;2023-03-14T09:50:52;8.32;;;2.85;;
64387;SDS011;50709;52.648;4.764;2023-03-14T09:53:26;6.75;;;2.28;;
64387;SDS011;50709;52.648;4.764;2023-03-14T09:55:58;11.98;;;2.70;;
64387;SDS011;50709;52.648;4.764;2023-03-14T09:58:24;11.35;;;3.33;;
64387;SDS011;50709;52.648;4.764;2023-03-14T10:00:51;7.75;;;2.83;;
64387;SDS011;50709;52.648;4.764;2023-03-14T10:05:44;8.07;;;2.60;;
64387;SDS011;50709;52.648;4.764;2023-03-14T10:08:10;7.07;;;2.25;;
64387;SDS011;50709;52.648;4.764;2023-03-14T10:10:36;7.70;;;3.13;;
64387;SDS011;50709;52.648;4.764;2023-03-14T10:13:19;6.68;;;2.63;;
64387;SDS011;50709;52.648;4.764;2023-03-14T10:16:00;9.05;;;2.33;;
64387;SDS011;50709;52.648;4.764;2023-03-14T10:18:28;6.63;;;1.98;;
64387;SDS011;50709;52.648;4.764;2023-03-14T10:21:29;10.05;;;3.40;;
64387;SDS011;50709;52.648;4.764;2023-03-14T10:23:53;11.00;;;2.83;;
64387;SDS011;50709;52.648;4.764;2023-03-14T10:26:26;2.92;;;1.25;;
64387;SDS011;50709;52.648;4.764;2023-03-14T10:28:53;8.25;;;2.80;;
64387;SDS011;50709;52.648;4.764;2023-03-14T10:31:26;7.75;;;2.20;;
64387;SDS011;50709;52.648;4.764;2023-03-14T10:34:02;4.00;;;1.45;;
64387;SDS011;50709;52.648;4.764;2023-03-14T10:36:29;5.35;;;1.60;;
64387;SDS011;50709;52.648;4.764;2023-03-14T10:42:01;4.57;;;1.67;;
64387;SDS011;50709;52.648;4.764;2023-03-14T10:44:30;8.18;;;2.85;;
64387;SDS011;50709;52.648;4.764;2023-03-14T10:47:00;9.10;;;2.58;;
64387;SDS011;50709;52.648;4.764;2023-03-14T10:49:29;6.55;;;1.90;;
64387;SDS011;50709;52.648;4.764;2023-03-14T10:52:12;6.07;;;1.73;;
64387;SDS011;50709;52.648;4.764;2023-03-14T10:54:40;9.93;;;2.75;;
64387;SDS011;50709;52.648;4.764;2023-03-14T10:57:05;4.75;;;1.60;;
64387;SDS011;50709;52.648;4.764;2023-03-14T10:59:35;1.30;;;0.93;;
64387;SDS011;50709;52.648;4.764;2023-03-14T11:07:40;5.05;;;1.92;;
64387;SDS011;50709;52.648;4.764;2023-03-14T11:15:35;3.97;;;1.50;;
64387;SDS011;50709;52.648;4.764;2023-03-14T11:21:07;4.97;;;2.00;;
64387;SDS011;50709;52.648;4.764;2023-03-14T11:28:50;5.45;;;1.65;;
64387;SDS011;50709;52.648;4.764;2023-03-14T11:31:26;3.20;;;1.67;;
64387;SDS011;50709;52.648;4.764;2023-03-14T11:34:00;9.43;;;1.85;;
64387;SDS011;50709;52.648;4.764;2023-03-14T11:39:07;3.80;;;1.50;;
64387;SDS011;50709;52.648;4.764;2023-03-14T11:41:57;3.17;;;1.60;;
64387;SDS011;50709;52.648;4.764;2023-03-14T11:49:45;4.83;;;1.10;;
64387;SDS011;50709;52.648;4.764;2023-03-14T11:55:00;4.30;;;1.40;;
64387;SDS011;50709;52.648;4.764;2023-03-14T11:57:28;8.80;;;1.63;;
64387;SDS011;50709;52.648;4.764;2023-03-14T11:59:58;5.40;;;1.60;;
64387;SDS011;50709;52.648;4.764;2023-03-14T12:07:42;6.75;;;1.85;;
64387;SDS011;50709;52.648;4.764;2023-03-14T12:13:19;6.35;;;2.00;;
64387;SDS011;50709;52.648;4.764;2023-03-14T12:15:49;5.45;;;1.63;;
64387;SDS011;50709;52.648;4.764;2023-03-14T12:18:56;4.93;;;1.55;;
64387;SDS011;50709;52.648;4.764;2023-03-14T12:21:15;4.13;;;1.40;;
64387;SDS011;50709;52.648;4.764;2023-03-14T12:26:14;4.97;;;1.58;;
64387;SDS011;50709;52.648;4.764;2023-03-14T12:28:49;7.20;;;2.45;;
64387;SDS011;50709;52.648;4.764;2023-03-14T12:31:36;7.32;;;1.83;;
64387;SDS011;50709;52.648;4.764;2023-03-14T12:34:31;8.10;;;1.70;;
64387;SDS011;50709;52.648;4.764;2023-03-14T12:44:55;5.47;;;1.63;;
64387;SDS011;50709;52.648;4.764;2023-03-14T12:47:41;4.18;;;1.33;;
64387;SDS011;50709;52.648;4.764;2023-03-14T12:50:26;7.45;;;1.65;;
64387;SDS011;50709;52.648;4.764;2023-03-14T12:55:36;3.97;;;1.38;;
64387;SDS011;50709;52.648;4.764;2023-03-14T13:01:34;5.03;;;1.70;;
64387;SDS011;50709;52.648;4.764;2023-03-14T13:04:09;3.75;;;1.42;;
64387;SDS011;50709;52.648;4.764;2023-03-14T13:12:03;2.40;;;0.82;;
64387;SDS011;50709;52.648;4.764;2023-03-14T13:14:37;2.83;;;1.20;;
64387;SDS011;50709;52.648;4.764;2023-03-14T13:17:14;7.63;;;1.65;;
64387;SDS011;50709;52.648;4.764;2023-03-14T13:19:44;2.30;;;1.10;;
64387;SDS011;50709;52.648;4.764;2023-03-14T13:27:22;5.32;;;1.33;;
64387;SDS011;50709;52.648;4.764;2023-03-14T13:29:49;4.75;;;1.30;;
64387;SDS011;50709;52.648;4.764;2023-03-14T13:32:22;2.50;;;1.38;;
64387;SDS011;50709;52.648;4.764;2023-03-14T13:34:55;3.25;;;1.02;;
64387;SDS011;50709;52.648;4.764;2023-03-14T13:37:22;3.58;;;1.25;;
64387;SDS011;50709;52.648;4.764;2023-03-14T13:39:56;4.03;;;1.40;;
64387;SDS011;50709;52.648;4.764;2023-03-14T13:44:55;4.05;;;1.70;;
64387;SDS011;50709;52.648;4.764;2023-03-14T13:47:22;3.00;;;1.40;;
64387;SDS011;50709;52.648;4.764;2023-03-14T13:49:50;5.57;;;1.67;;
64387;SDS011;50709;52.648;4.764;2023-03-14T13:52:35;5.82;;;1.77;;
64387;SDS011;50709;52.648;4.764;2023-03-14T13:55:03;4.45;;;1.80;;
64387;SDS011;50709;52.648;4.764;2023-03-14T14:00:16;1.67;;;0.90;;
64387;SDS011;50709;52.648;4.764;2023-03-14T14:02:43;4.25;;;1.40;;
64387;SDS011;50709;52.648;4.764;2023-03-14T14:05:12;2.45;;;1.10;;
64387;SDS011;50709;52.648;4.764;2023-03-14T14:07:38;5.07;;;1.90;;
64387;SDS011;50709;52.648;4.764;2023-03-14T14:10:05;4.03;;;1.23;;
64387;SDS011;50709;52.648;4.764;2023-03-14T14:12:37;4.55;;;1.33;;
64387;SDS011;50709;52.648;4.764;2023-03-14T14:15:27;7.90;;;1.70;;
64387;SDS011;50709;52.648;4.764;2023-03-14T14:17:57;1.33;;;0.93;;
64387;SDS011;50709;52.648;4.764;2023-03-14T14:20:30;6.88;;;2.08;;
64387;SDS011;50709;52.648;4.764;2023-03-14T14:23:03;3.25;;;1.70;;
64387;SDS011;50709;52.648;4.764;2023-03-14T14:25:30;4.13;;;1.58;;
64387;SDS011;50709;52.648;4.764;2023-03-14T14:27:56;3.20;;;1.08;;
64387;SDS011;50709;52.648;4.764;2023-03-14T14:30:24;4.45;;;1.65;;
64387;SDS011;50709;52.648;4.764;2023-03-14T14:33:07;4.00;;;1.73;;
64387;SDS011;50709;52.648;4.764;2023-03-14T14:35:42;5.43;;;1.40;;
64387;SDS011;50709;52.648;4.764;2023-03-14T14:38:19;3.78;;;1.45;;
64387;SDS011;50709;52.648;4.764;2023-03-14T14:40:46;3.28;;;1.35;;
64387;SDS011;50709;52.648;4.764;2023-03-14T14:43:18;5.80;;;1.63;;
64387;SDS011;50709;52.648;4.764;2023-03-14T14:45:47;3.65;;;1.50;;
64387;SDS011;50709;52.648;4.764;2023-03-14T14:48:15;3.92;;;1.40;;
64387;SDS011;50709;52.648;4.764;2023-03-14T14:55:52;9.02;;;2.10;;
64387;SDS011;50709;52.648;4.764;2023-03-14T15:00:52;4.68;;;1.52;;
64387;SDS011;50709;52.648;4.764;2023-03-14T15:03:20;4.28;;;1.77;;
64387;SDS011;50709;52.648;4.764;2023-03-14T15:05:46;7.75;;;1.52;;
64387;SDS011;50709;52.648;4.764;2023-03-14T15:08:11;4.18;;;1.45;;
64387;SDS011;50709;52.648;4.764;2023-03-14T15:10:37;3.75;;;1.25;;
64387;SDS011;50709;52.648;4.764;2023-03-14T15:13:03;3.90;;;1.42;;
64387;SDS011;50709;52.648;4.764;2023-03-14T15:15:28;5.65;;;1.70;;
64387;SDS011;50709;52.648;4.764;2023-03-14T15:17:54;3.97;;;1.65;;
64387;SDS011;50709;52.648;4.764;2023-03-14T15:20:19;3.80;;;1.30;;
64387;SDS011;50709;52.648;4.764;2023-03-14T15:22:48;4.10;;;1.55;;
64387;SDS011;50709;52.648;4.764;2023-03-14T15:25:14;6.03;;;1.60;;
64387;SDS011;50709;52.648;4.764;2023-03-14T15:27:40;4.00;;;1.52;;
64387;SDS011;50709;52.648;4.764;2023-03-14T15:30:13;5.25;;;1.50;;
64387;SDS011;50709;52.648;4.764;2023-03-14T15:32:40;4.68;;;1.38;;
64387;SDS011;50709;52.648;4.764;2023-03-14T15:35:06;3.55;;;1.30;;
64387;SDS011;50709;52.648;4.764;2023-03-14T15:37:32;7.05;;;1.90;;
64387;SDS011;50709;52.648;4.764;2023-03-14T15:39:58;4.88;;;1.48;;
64387;SDS011;50709;52.648;4.764;2023-03-14T15:42:23;4.50;;;1.58;;
64387;SDS011;50709;52.648;4.764;2023-03-14T15:44:49;9.30;;;1.70;;
64387;SDS011;50709;52.648;4.764;2023-03-14T15:47:14;6.75;;;1.70;;
64387;SDS011;50709;52.648;4.764;2023-03-14T15:49:40;2.80;;;1.38;;
64387;SDS011;50709;52.648;4.764;2023-03-14T15:52:05;6.22;;;1.63;;
64387;SDS011;50709;52.648;4.764;2023-03-14T15:54:32;4.68;;;1.75;;
64387;SDS011;50709;52.648;4.764;2023-03-14T15:56:58;6.32;;;1.50;;
64387;SDS011;50709;52.648;4.764;2023-03-14T15:59:24;9.55;;;1.83;;
64387;SDS011;50709;52.648;4.764;2023-03-14T16:01:49;3.35;;;1.48;;
64387;SDS011;50709;52.648;4.764;2023-03-14T16:04:15;3.70;;;1.45;;
64387;SDS011;50709;52.648;4.764;2023-03-14T16:06:41;5.50;;;1.70;;
64387;SDS011;50709;52.648;4.764;2023-03-14T16:09:09;4.03;;;1.48;;
64387;SDS011;50709;52.648;4.764;2023-03-14T16:11:35;6.70;;;1.92;;
64387;SDS011;50709;52.648;4.764;2023-03-14T16:14:00;6.35;;;1.60;;
64387;SDS011;50709;52.648;4.764;2023-03-14T16:16:26;6.60;;;1.90;;
64387;SDS011;50709;52.648;4.764;2023-03-14T16:18:51;5.88;;;1.50;;
64387;SDS011;50709;52.648;4.764;2023-03-14T16:21:17;3.08;;;1.60;;